sensor_id;sensor_type;location;lat;lon;timestamp;P1;durP1;ratioP1;P2;durP2;ratioP2
69981;SDS011;57319;56.274;43.980;2022-07-09T00:02:04;8.13;;;7.35;;
69981;SDS011;57319;56.274;43.980;2022-07-09T00:04:30;7.47;;;6.80;;
69981;SDS011;57319;56.274;43.980;2022-07-09T00:06:55;8.13;;;7.32;;
69981;SDS011;57319;56.274;43.980;2022-07-09T00:09:21;9.80;;;7.03;;
69981;SDS011;57319;56.274;43.980;2022-07-09T00:11:47;9.10;;;6.75;;
69981;SDS011;57319;56.274;43.980;2022-07-09T00:14:12;7.85;;;7.03;;
69981;SDS011;57319;56.274;43.980;2022-07-09T00:16:38;8.70;;;7.78;;
69981;SDS011;57319;56.274;43.980;2022-07-09T00:19:03;7.35;;;6.75;;
69981;SDS011;57319;56.274;43.980;2022-07-09T00:21:29;12.98;;;6.80;;
69981;SDS011;57319;56.274;43.980;2022-07-09T00:23:55;7.55;;;6.80;;
69981;SDS011;57319;56.274;43.980;2022-07-09T00:26:20;11.07;;;7.50;;
69981;SDS011;57319;56.274;43.980;2022-07-09T00:28:46;8.35;;;7.60;;
69981;SDS011;57319;56.274;43.980;2022-07-09T00:31:12;9.10;;;7.60;;
69981;SDS011;57319;56.274;43.980;2022-07-09T00:33:37;10.45;;;7.65;;
69981;SDS011;57319;56.274;43.980;2022-07-09T00:36:03;12.60;;;7.03;;
69981;SDS011;57319;56.274;43.980;2022-07-09T00:38:29;15.13;;;7.95;;
69981;SDS011;57319;56.274;43.980;2022-07-09T00:40:54;7.50;;;6.90;;
69981;SDS011;57319;56.274;43.980;2022-07-09T00:43:21;9.80;;;7.40;;
69981;SDS011;57319;56.274;43.980;2022-07-09T00:45:48;12.57;;;8.02;;
69981;SDS011;57319;56.274;43.980;2022-07-09T00:48:14;10.45;;;7.35;;
69981;SDS011;57319;56.274;43.980;2022-07-09T00:50:40;8.57;;;7.68;;
69981;SDS011;57319;56.274;43.980;2022-07-09T00:53:08;8.35;;;7.55;;
69981;SDS011;57319;56.274;43.980;2022-07-09T00:55:36;7.93;;;7.07;;
69981;SDS011;57319;56.274;43.980;2022-07-09T00:58:02;8.10;;;7.40;;
69981;SDS011;57319;56.274;43.980;2022-07-09T01:00:28;11.93;;;8.30;;
69981;SDS011;57319;56.274;43.980;2022-07-09T01:02:54;8.32;;;7.53;;
69981;SDS011;57319;56.274;43.980;2022-07-09T01:05:20;9.07;;;7.93;;
69981;SDS011;57319;56.274;43.980;2022-07-09T01:07:46;15.40;;;7.38;;
69981;SDS011;57319;56.274;43.980;2022-07-09T01:10:12;16.48;;;9.30;;
69981;SDS011;57319;56.274;43.980;2022-07-09T01:12:37;8.80;;;7.38;;
69981;SDS011;57319;56.274;43.980;2022-07-09T01:15:04;8.93;;;8.00;;
69981;SDS011;57319;56.274;43.980;2022-07-09T01:17:38;11.40;;;7.97;;
69981;SDS011;57319;56.274;43.980;2022-07-09T01:20:04;9.80;;;8.27;;
69981;SDS011;57319;56.274;43.980;2022-07-09T01:22:31;20.73;;;8.55;;
69981;SDS011;57319;56.274;43.980;2022-07-09T01:24:56;11.88;;;8.50;;
69981;SDS011;57319;56.274;43.980;2022-07-09T01:27:24;9.93;;;8.20;;
69981;SDS011;57319;56.274;43.980;2022-07-09T01:29:49;10.30;;;8.57;;
69981;SDS011;57319;56.274;43.980;2022-07-09T01:32:18;13.55;;;8.27;;
69981;SDS011;57319;56.274;43.980;2022-07-09T01:34:43;15.63;;;9.00;;
69981;SDS011;57319;56.274;43.980;2022-07-09T01:37:09;8.98;;;8.25;;
69981;SDS011;57319;56.274;43.980;2022-07-09T01:39:35;9.02;;;8.32;;
69981;SDS011;57319;56.274;43.980;2022-07-09T01:42:15;9.15;;;8.18;;
69981;SDS011;57319;56.274;43.980;2022-07-09T01:44:42;12.18;;;8.35;;
69981;SDS011;57319;56.274;43.980;2022-07-09T01:47:07;8.48;;;7.78;;
69981;SDS011;57319;56.274;43.980;2022-07-09T01:49:33;12.02;;;8.50;;
69981;SDS011;57319;56.274;43.980;2022-07-09T01:51:58;14.77;;;8.13;;
69981;SDS011;57319;56.274;43.980;2022-07-09T01:54:24;8.85;;;7.95;;
69981;SDS011;57319;56.274;43.980;2022-07-09T01:56:50;10.13;;;7.90;;
69981;SDS011;57319;56.274;43.980;2022-07-09T01:59:15;11.18;;;7.93;;
69981;SDS011;57319;56.274;43.980;2022-07-09T02:01:41;9.60;;;7.90;;
69981;SDS011;57319;56.274;43.980;2022-07-09T02:04:06;13.25;;;8.48;;
69981;SDS011;57319;56.274;43.980;2022-07-09T02:06:32;19.58;;;8.40;;
69981;SDS011;57319;56.274;43.980;2022-07-09T02:08:58;8.73;;;7.80;;
69981;SDS011;57319;56.274;43.980;2022-07-09T02:11:23;12.48;;;8.05;;
69981;SDS011;57319;56.274;43.980;2022-07-09T02:13:49;9.45;;;8.43;;
69981;SDS011;57319;56.274;43.980;2022-07-09T02:16:14;9.18;;;8.20;;
69981;SDS011;57319;56.274;43.980;2022-07-09T02:18:40;11.93;;;7.70;;
69981;SDS011;57319;56.274;43.980;2022-07-09T02:21:05;12.05;;;8.18;;
69981;SDS011;57319;56.274;43.980;2022-07-09T02:23:32;8.80;;;8.10;;
69981;SDS011;57319;56.274;43.980;2022-07-09T02:25:58;17.40;;;7.90;;
69981;SDS011;57319;56.274;43.980;2022-07-09T02:28:23;8.93;;;8.07;;
69981;SDS011;57319;56.274;43.980;2022-07-09T02:30:49;9.20;;;7.95;;
69981;SDS011;57319;56.274;43.980;2022-07-09T02:33:14;10.15;;;7.75;;
69981;SDS011;57319;56.274;43.980;2022-07-09T02:35:40;8.30;;;7.50;;
69981;SDS011;57319;56.274;43.980;2022-07-09T02:38:06;8.93;;;8.02;;
69981;SDS011;57319;56.274;43.980;2022-07-09T02:40:31;13.57;;;7.88;;
69981;SDS011;57319;56.274;43.980;2022-07-09T02:42:57;7.72;;;6.97;;
69981;SDS011;57319;56.274;43.980;2022-07-09T02:45:22;8.23;;;7.40;;
69981;SDS011;57319;56.274;43.980;2022-07-09T02:47:48;8.85;;;7.35;;
69981;SDS011;57319;56.274;43.980;2022-07-09T02:50:14;7.75;;;7.05;;
69981;SDS011;57319;56.274;43.980;2022-07-09T02:52:39;9.63;;;7.22;;
69981;SDS011;57319;56.274;43.980;2022-07-09T02:55:05;8.18;;;6.85;;
69981;SDS011;57319;56.274;43.980;2022-07-09T02:57:31;10.13;;;7.63;;
69981;SDS011;57319;56.274;43.980;2022-07-09T02:59:56;8.30;;;7.03;;
69981;SDS011;57319;56.274;43.980;2022-07-09T03:02:22;12.20;;;7.15;;
69981;SDS011;57319;56.274;43.980;2022-07-09T03:04:47;10.43;;;7.10;;
69981;SDS011;57319;56.274;43.980;2022-07-09T03:07:13;7.28;;;6.65;;
69981;SDS011;57319;56.274;43.980;2022-07-09T03:09:39;8.65;;;7.03;;
69981;SDS011;57319;56.274;43.980;2022-07-09T03:12:05;8.45;;;7.47;;
69981;SDS011;57319;56.274;43.980;2022-07-09T03:14:31;11.00;;;7.68;;
69981;SDS011;57319;56.274;43.980;2022-07-09T03:16:57;14.60;;;7.70;;
69981;SDS011;57319;56.274;43.980;2022-07-09T03:19:22;8.63;;;6.60;;
69981;SDS011;57319;56.274;43.980;2022-07-09T03:21:48;7.75;;;7.07;;
69981;SDS011;57319;56.274;43.980;2022-07-09T03:24:13;23.60;;;7.18;;
69981;SDS011;57319;56.274;43.980;2022-07-09T03:26:39;8.02;;;7.25;;
69981;SDS011;57319;56.274;43.980;2022-07-09T03:29:05;7.90;;;7.20;;
69981;SDS011;57319;56.274;43.980;2022-07-09T03:31:30;8.13;;;7.32;;
69981;SDS011;57319;56.274;43.980;2022-07-09T03:33:56;13.95;;;7.30;;
69981;SDS011;57319;56.274;43.980;2022-07-09T03:36:22;13.52;;;7.78;;
69981;SDS011;57319;56.274;43.980;2022-07-09T03:38:48;10.07;;;8.32;;
69981;SDS011;57319;56.274;43.980;2022-07-09T03:41:13;8.85;;;7.13;;
69981;SDS011;57319;56.274;43.980;2022-07-09T03:43:39;10.65;;;8.60;;
69981;SDS011;57319;56.274;43.980;2022-07-09T03:46:06;8.95;;;8.05;;
69981;SDS011;57319;56.274;43.980;2022-07-09T03:48:32;8.70;;;7.90;;
69981;SDS011;57319;56.274;43.980;2022-07-09T03:50:58;14.98;;;8.63;;
69981;SDS011;57319;56.274;43.980;2022-07-09T03:53:24;9.98;;;8.88;;
69981;SDS011;57319;56.274;43.980;2022-07-09T03:55:50;11.93;;;8.48;;
69981;SDS011;57319;56.274;43.980;2022-07-09T03:58:16;10.30;;;9.30;;
69981;SDS011;57319;56.274;43.980;2022-07-09T04:00:42;9.82;;;8.32;;
69981;SDS011;57319;56.274;43.980;2022-07-09T04:03:07;12.40;;;8.75;;
69981;SDS011;57319;56.274;43.980;2022-07-09T04:05:33;8.85;;;7.95;;
69981;SDS011;57319;56.274;43.980;2022-07-09T04:07:58;8.73;;;7.78;;
69981;SDS011;57319;56.274;43.980;2022-07-09T04:10:24;13.55;;;9.30;;
69981;SDS011;57319;56.274;43.980;2022-07-09T04:12:49;19.35;;;8.30;;
69981;SDS011;57319;56.274;43.980;2022-07-09T04:15:15;9.73;;;8.55;;
69981;SDS011;57319;56.274;43.980;2022-07-09T04:17:41;38.92;;;9.48;;
69981;SDS011;57319;56.274;43.980;2022-07-09T04:20:06;9.00;;;7.95;;
69981;SDS011;57319;56.274;43.980;2022-07-09T04:22:32;10.98;;;8.73;;
69981;SDS011;57319;56.274;43.980;2022-07-09T04:24:58;9.20;;;8.30;;
69981;SDS011;57319;56.274;43.980;2022-07-09T04:27:24;11.02;;;9.10;;
69981;SDS011;57319;56.274;43.980;2022-07-09T04:29:50;12.23;;;8.18;;
69981;SDS011;57319;56.274;43.980;2022-07-09T04:32:15;11.02;;;8.20;;
69981;SDS011;57319;56.274;43.980;2022-07-09T04:34:41;11.32;;;8.30;;
69981;SDS011;57319;56.274;43.980;2022-07-09T04:37:07;9.57;;;7.57;;
69981;SDS011;57319;56.274;43.980;2022-07-09T04:39:33;9.38;;;8.43;;
69981;SDS011;57319;56.274;43.980;2022-07-09T04:41:59;24.67;;;8.10;;
69981;SDS011;57319;56.274;43.980;2022-07-09T04:44:24;12.23;;;8.30;;
69981;SDS011;57319;56.274;43.980;2022-07-09T04:46:50;10.05;;;8.20;;
69981;SDS011;57319;56.274;43.980;2022-07-09T04:49:16;11.45;;;7.97;;
69981;SDS011;57319;56.274;43.980;2022-07-09T04:51:42;11.50;;;7.80;;
69981;SDS011;57319;56.274;43.980;2022-07-09T04:54:07;9.60;;;8.60;;
69981;SDS011;57319;56.274;43.980;2022-07-09T04:56:33;9.23;;;7.25;;
69981;SDS011;57319;56.274;43.980;2022-07-09T04:58:59;9.35;;;8.38;;
69981;SDS011;57319;56.274;43.980;2022-07-09T05:01:27;9.07;;;8.18;;
69981;SDS011;57319;56.274;43.980;2022-07-09T05:03:54;11.60;;;7.85;;
69981;SDS011;57319;56.274;43.980;2022-07-09T05:06:20;10.80;;;8.45;;
69981;SDS011;57319;56.274;43.980;2022-07-09T05:08:46;13.55;;;9.10;;
69981;SDS011;57319;56.274;43.980;2022-07-09T05:11:12;14.48;;;8.20;;
69981;SDS011;57319;56.274;43.980;2022-07-09T05:13:38;10.23;;;8.65;;
69981;SDS011;57319;56.274;43.980;2022-07-09T05:16:07;10.52;;;8.45;;
69981;SDS011;57319;56.274;43.980;2022-07-09T05:18:33;10.98;;;8.32;;
69981;SDS011;57319;56.274;43.980;2022-07-09T05:20:59;10.05;;;8.13;;
69981;SDS011;57319;56.274;43.980;2022-07-09T05:23:25;11.48;;;8.60;;
69981;SDS011;57319;56.274;43.980;2022-07-09T05:25:51;8.75;;;7.78;;
69981;SDS011;57319;56.274;43.980;2022-07-09T05:28:16;9.30;;;8.40;;
69981;SDS011;57319;56.274;43.980;2022-07-09T05:30:42;15.25;;;8.82;;
69981;SDS011;57319;56.274;43.980;2022-07-09T05:33:08;10.48;;;7.80;;
69981;SDS011;57319;56.274;43.980;2022-07-09T05:35:34;12.25;;;8.52;;
69981;SDS011;57319;56.274;43.980;2022-07-09T05:38:00;9.73;;;8.48;;
69981;SDS011;57319;56.274;43.980;2022-07-09T05:40:25;10.65;;;8.65;;
69981;SDS011;57319;56.274;43.980;2022-07-09T05:42:51;12.82;;;7.97;;
69981;SDS011;57319;56.274;43.980;2022-07-09T05:45:16;12.82;;;8.45;;
69981;SDS011;57319;56.274;43.980;2022-07-09T05:47:42;12.13;;;8.63;;
69981;SDS011;57319;56.274;43.980;2022-07-09T05:50:08;15.90;;;8.48;;
69981;SDS011;57319;56.274;43.980;2022-07-09T05:52:34;13.15;;;7.95;;
69981;SDS011;57319;56.274;43.980;2022-07-09T05:55:00;9.30;;;8.20;;
69981;SDS011;57319;56.274;43.980;2022-07-09T05:57:25;10.18;;;7.95;;
69981;SDS011;57319;56.274;43.980;2022-07-09T05:59:51;9.35;;;7.95;;
69981;SDS011;57319;56.274;43.980;2022-07-09T06:02:17;8.57;;;7.85;;
69981;SDS011;57319;56.274;43.980;2022-07-09T06:04:44;11.00;;;7.82;;
69981;SDS011;57319;56.274;43.980;2022-07-09T06:07:09;18.85;;;8.52;;
69981;SDS011;57319;56.274;43.980;2022-07-09T06:09:35;17.92;;;9.25;;
69981;SDS011;57319;56.274;43.980;2022-07-09T06:12:02;9.10;;;8.00;;
69981;SDS011;57319;56.274;43.980;2022-07-09T06:14:27;18.13;;;8.30;;
69981;SDS011;57319;56.274;43.980;2022-07-09T06:16:53;16.55;;;8.40;;
69981;SDS011;57319;56.274;43.980;2022-07-09T06:19:20;8.40;;;7.60;;
69981;SDS011;57319;56.274;43.980;2022-07-09T06:21:46;10.60;;;7.82;;
69981;SDS011;57319;56.274;43.980;2022-07-09T06:24:12;8.07;;;7.28;;
69981;SDS011;57319;56.274;43.980;2022-07-09T06:26:37;8.00;;;7.20;;
69981;SDS011;57319;56.274;43.980;2022-07-09T06:29:03;10.90;;;7.80;;
69981;SDS011;57319;56.274;43.980;2022-07-09T06:31:29;14.00;;;6.85;;
69981;SDS011;57319;56.274;43.980;2022-07-09T06:33:54;10.88;;;7.93;;
69981;SDS011;57319;56.274;43.980;2022-07-09T06:36:21;7.70;;;7.07;;
69981;SDS011;57319;56.274;43.980;2022-07-09T06:38:47;9.48;;;7.47;;
69981;SDS011;57319;56.274;43.980;2022-07-09T06:41:32;8.70;;;6.50;;
69981;SDS011;57319;56.274;43.980;2022-07-09T06:43:58;9.40;;;7.18;;
69981;SDS011;57319;56.274;43.980;2022-07-09T06:46:23;20.90;;;8.35;;
69981;SDS011;57319;56.274;43.980;2022-07-09T06:48:49;10.43;;;7.57;;
69981;SDS011;57319;56.274;43.980;2022-07-09T06:51:15;13.27;;;8.43;;
69981;SDS011;57319;56.274;43.980;2022-07-09T06:53:40;8.98;;;7.78;;
69981;SDS011;57319;56.274;43.980;2022-07-09T06:56:06;13.38;;;7.55;;
69981;SDS011;57319;56.274;43.980;2022-07-09T06:58:32;8.52;;;7.53;;
69981;SDS011;57319;56.274;43.980;2022-07-09T07:00:58;9.23;;;7.88;;
69981;SDS011;57319;56.274;43.980;2022-07-09T07:03:24;9.43;;;8.43;;
69981;SDS011;57319;56.274;43.980;2022-07-09T07:05:50;9.73;;;8.05;;
69981;SDS011;57319;56.274;43.980;2022-07-09T07:08:15;13.93;;;8.98;;
69981;SDS011;57319;56.274;43.980;2022-07-09T07:10:43;18.48;;;8.73;;
69981;SDS011;57319;56.274;43.980;2022-07-09T07:13:08;14.05;;;7.80;;
69981;SDS011;57319;56.274;43.980;2022-07-09T07:15:35;13.05;;;8.02;;
69981;SDS011;57319;56.274;43.980;2022-07-09T07:18:01;14.57;;;8.68;;
69981;SDS011;57319;56.274;43.980;2022-07-09T07:20:27;10.82;;;8.52;;
69981;SDS011;57319;56.274;43.980;2022-07-09T07:22:52;12.27;;;8.18;;
69981;SDS011;57319;56.274;43.980;2022-07-09T07:25:18;10.63;;;7.72;;
69981;SDS011;57319;56.274;43.980;2022-07-09T07:27:44;8.60;;;7.65;;
69981;SDS011;57319;56.274;43.980;2022-07-09T07:30:10;9.18;;;7.93;;
69981;SDS011;57319;56.274;43.980;2022-07-09T07:32:35;9.15;;;8.25;;
69981;SDS011;57319;56.274;43.980;2022-07-09T07:35:01;10.10;;;7.82;;
69981;SDS011;57319;56.274;43.980;2022-07-09T07:37:29;13.70;;;7.90;;
69981;SDS011;57319;56.274;43.980;2022-07-09T07:39:56;8.60;;;7.75;;
69981;SDS011;57319;56.274;43.980;2022-07-09T07:42:22;13.77;;;7.88;;
69981;SDS011;57319;56.274;43.980;2022-07-09T07:44:48;8.30;;;7.10;;
69981;SDS011;57319;56.274;43.980;2022-07-09T07:47:14;8.18;;;7.38;;
69981;SDS011;57319;56.274;43.980;2022-07-09T07:49:40;8.60;;;7.82;;
69981;SDS011;57319;56.274;43.980;2022-07-09T07:52:06;10.27;;;7.78;;
69981;SDS011;57319;56.274;43.980;2022-07-09T07:54:31;10.52;;;7.60;;
69981;SDS011;57319;56.274;43.980;2022-07-09T07:56:58;8.57;;;7.68;;
69981;SDS011;57319;56.274;43.980;2022-07-09T07:59:24;12.50;;;7.78;;
69981;SDS011;57319;56.274;43.980;2022-07-09T08:01:49;8.43;;;7.10;;
69981;SDS011;57319;56.274;43.980;2022-07-09T08:04:15;7.95;;;7.15;;
69981;SDS011;57319;56.274;43.980;2022-07-09T08:06:41;8.52;;;7.47;;
69981;SDS011;57319;56.274;43.980;2022-07-09T08:09:06;11.13;;;7.32;;
69981;SDS011;57319;56.274;43.980;2022-07-09T08:11:32;8.35;;;7.57;;
69981;SDS011;57319;56.274;43.980;2022-07-09T08:13:57;8.18;;;7.20;;
69981;SDS011;57319;56.274;43.980;2022-07-09T08:16:23;12.45;;;7.50;;
69981;SDS011;57319;56.274;43.980;2022-07-09T08:18:49;12.77;;;8.27;;
69981;SDS011;57319;56.274;43.980;2022-07-09T08:21:14;7.43;;;6.88;;
69981;SDS011;57319;56.274;43.980;2022-07-09T08:23:40;9.27;;;7.20;;
69981;SDS011;57319;56.274;43.980;2022-07-09T08:26:25;8.05;;;6.95;;
69981;SDS011;57319;56.274;43.980;2022-07-09T08:28:51;8.77;;;7.35;;
69981;SDS011;57319;56.274;43.980;2022-07-09T08:31:18;11.15;;;7.20;;
69981;SDS011;57319;56.274;43.980;2022-07-09T08:33:45;10.57;;;7.70;;
69981;SDS011;57319;56.274;43.980;2022-07-09T08:36:11;10.45;;;7.28;;
69981;SDS011;57319;56.274;43.980;2022-07-09T08:38:37;8.05;;;7.40;;
69981;SDS011;57319;56.274;43.980;2022-07-09T08:41:03;10.55;;;8.00;;
69981;SDS011;57319;56.274;43.980;2022-07-09T08:43:34;11.85;;;7.65;;
69981;SDS011;57319;56.274;43.980;2022-07-09T08:46:01;9.55;;;8.60;;
69981;SDS011;57319;56.274;43.980;2022-07-09T08:48:27;10.50;;;7.88;;
69981;SDS011;57319;56.274;43.980;2022-07-09T08:50:53;16.33;;;8.30;;
69981;SDS011;57319;56.274;43.980;2022-07-09T08:53:20;18.55;;;8.25;;
69981;SDS011;57319;56.274;43.980;2022-07-09T08:55:46;8.10;;;7.35;;
69981;SDS011;57319;56.274;43.980;2022-07-09T08:58:12;9.65;;;8.60;;
69981;SDS011;57319;56.274;43.980;2022-07-09T09:00:41;20.33;;;9.02;;
69981;SDS011;57319;56.274;43.980;2022-07-09T09:03:07;11.85;;;8.70;;
69981;SDS011;57319;56.274;43.980;2022-07-09T09:05:32;12.88;;;8.98;;
69981;SDS011;57319;56.274;43.980;2022-07-09T09:07:59;11.82;;;8.27;;
69981;SDS011;57319;56.274;43.980;2022-07-09T09:10:27;18.55;;;8.10;;
69981;SDS011;57319;56.274;43.980;2022-07-09T09:12:57;11.63;;;7.60;;
69981;SDS011;57319;56.274;43.980;2022-07-09T09:15:24;20.98;;;8.18;;
69981;SDS011;57319;56.274;43.980;2022-07-09T09:17:49;11.00;;;8.50;;
69981;SDS011;57319;56.274;43.980;2022-07-09T09:20:15;13.27;;;7.68;;
69981;SDS011;57319;56.274;43.980;2022-07-09T09:22:53;7.88;;;7.28;;
69981;SDS011;57319;56.274;43.980;2022-07-09T09:25:25;10.57;;;8.20;;
69981;SDS011;57319;56.274;43.980;2022-07-09T09:30:20;10.90;;;8.15;;
69981;SDS011;57319;56.274;43.980;2022-07-09T09:35:35;9.82;;;7.97;;
69981;SDS011;57319;56.274;43.980;2022-07-09T09:38:07;12.43;;;7.60;;
69981;SDS011;57319;56.274;43.980;2022-07-09T09:40:32;15.15;;;8.77;;
69981;SDS011;57319;56.274;43.980;2022-07-09T09:42:58;8.48;;;7.55;;
69981;SDS011;57319;56.274;43.980;2022-07-09T09:45:27;10.35;;;7.57;;
69981;SDS011;57319;56.274;43.980;2022-07-09T09:47:53;15.68;;;8.38;;
69981;SDS011;57319;56.274;43.980;2022-07-09T09:50:19;8.45;;;7.60;;
69981;SDS011;57319;56.274;43.980;2022-07-09T09:52:47;12.63;;;7.88;;
69981;SDS011;57319;56.274;43.980;2022-07-09T09:55:15;8.77;;;7.93;;
69981;SDS011;57319;56.274;43.980;2022-07-09T09:57:42;11.27;;;8.07;;
69981;SDS011;57319;56.274;43.980;2022-07-09T10:00:08;13.07;;;8.07;;
69981;SDS011;57319;56.274;43.980;2022-07-09T10:02:36;8.63;;;7.78;;
69981;SDS011;57319;56.274;43.980;2022-07-09T10:05:07;19.88;;;7.63;;
69981;SDS011;57319;56.274;43.980;2022-07-09T10:07:33;20.38;;;7.80;;
69981;SDS011;57319;56.274;43.980;2022-07-09T10:09:59;12.45;;;7.57;;
69981;SDS011;57319;56.274;43.980;2022-07-09T10:12:32;10.55;;;7.88;;
69981;SDS011;57319;56.274;43.980;2022-07-09T10:15:00;13.13;;;8.10;;
69981;SDS011;57319;56.274;43.980;2022-07-09T10:17:26;10.73;;;7.80;;
69981;SDS011;57319;56.274;43.980;2022-07-09T10:19:53;18.90;;;7.32;;
69981;SDS011;57319;56.274;43.980;2022-07-09T10:22:21;7.95;;;7.20;;
69981;SDS011;57319;56.274;43.980;2022-07-09T10:25:07;11.70;;;7.53;;
69981;SDS011;57319;56.274;43.980;2022-07-09T10:27:46;9.13;;;7.78;;
69981;SDS011;57319;56.274;43.980;2022-07-09T10:30:29;19.63;;;7.80;;
69981;SDS011;57319;56.274;43.980;2022-07-09T10:33:06;8.32;;;7.40;;
69981;SDS011;57319;56.274;43.980;2022-07-09T10:35:47;8.27;;;7.57;;
69981;SDS011;57319;56.274;43.980;2022-07-09T10:38:15;8.32;;;7.63;;
69981;SDS011;57319;56.274;43.980;2022-07-09T10:40:42;8.88;;;8.02;;
69981;SDS011;57319;56.274;43.980;2022-07-09T10:43:10;20.40;;;8.35;;
69981;SDS011;57319;56.274;43.980;2022-07-09T10:48:03;12.02;;;8.00;;
69981;SDS011;57319;56.274;43.980;2022-07-09T10:50:32;11.82;;;8.32;;
69981;SDS011;57319;56.274;43.980;2022-07-09T10:53:01;15.98;;;7.95;;
69981;SDS011;57319;56.274;43.980;2022-07-09T10:55:29;12.45;;;8.93;;
69981;SDS011;57319;56.274;43.980;2022-07-09T10:57:55;12.13;;;8.32;;
69981;SDS011;57319;56.274;43.980;2022-07-09T11:00:26;9.15;;;8.30;;
69981;SDS011;57319;56.274;43.980;2022-07-09T11:02:59;10.63;;;7.90;;
69981;SDS011;57319;56.274;43.980;2022-07-09T11:05:30;21.08;;;8.63;;
69981;SDS011;57319;56.274;43.980;2022-07-09T11:08:01;17.95;;;7.97;;
69981;SDS011;57319;56.274;43.980;2022-07-09T11:10:31;11.80;;;8.25;;
69981;SDS011;57319;56.274;43.980;2022-07-09T11:13:00;15.02;;;8.90;;
69981;SDS011;57319;56.274;43.980;2022-07-09T11:15:30;9.20;;;8.30;;
69981;SDS011;57319;56.274;43.980;2022-07-09T11:23:11;11.40;;;8.00;;
69981;SDS011;57319;56.274;43.980;2022-07-09T11:25:41;16.95;;;9.35;;
69981;SDS011;57319;56.274;43.980;2022-07-09T11:28:07;11.65;;;8.65;;
69981;SDS011;57319;56.274;43.980;2022-07-09T11:30:34;9.57;;;8.85;;
69981;SDS011;57319;56.274;43.980;2022-07-09T11:33:01;18.83;;;9.10;;
69981;SDS011;57319;56.274;43.980;2022-07-09T11:35:33;11.88;;;9.23;;
69981;SDS011;57319;56.274;43.980;2022-07-09T11:38:04;10.23;;;9.33;;
69981;SDS011;57319;56.274;43.980;2022-07-09T11:40:33;10.93;;;8.97;;
69981;SDS011;57319;56.274;43.980;2022-07-09T11:42:59;10.32;;;8.60;;
69981;SDS011;57319;56.274;43.980;2022-07-09T11:45:25;11.77;;;9.35;;
69981;SDS011;57319;56.274;43.980;2022-07-09T11:48:06;10.07;;;8.93;;
69981;SDS011;57319;56.274;43.980;2022-07-09T11:50:33;15.68;;;9.25;;
69981;SDS011;57319;56.274;43.980;2022-07-09T11:53:07;15.20;;;9.07;;
69981;SDS011;57319;56.274;43.980;2022-07-09T11:55:32;11.88;;;10.02;;
69981;SDS011;57319;56.274;43.980;2022-07-09T11:58:09;14.23;;;9.13;;
69981;SDS011;57319;56.274;43.980;2022-07-09T12:00:35;19.17;;;9.60;;
69981;SDS011;57319;56.274;43.980;2022-07-09T12:03:05;16.30;;;8.95;;
69981;SDS011;57319;56.274;43.980;2022-07-09T12:05:32;12.60;;;9.68;;
69981;SDS011;57319;56.274;43.980;2022-07-09T12:08:02;10.23;;;9.13;;
69981;SDS011;57319;56.274;43.980;2022-07-09T12:10:34;16.50;;;10.10;;
69981;SDS011;57319;56.274;43.980;2022-07-09T12:13:01;10.70;;;9.60;;
69981;SDS011;57319;56.274;43.980;2022-07-09T12:15:28;24.40;;;9.57;;
69981;SDS011;57319;56.274;43.980;2022-07-09T12:17:55;10.23;;;9.00;;
69981;SDS011;57319;56.274;43.980;2022-07-09T12:20:23;17.75;;;9.45;;
69981;SDS011;57319;56.274;43.980;2022-07-09T12:22:52;21.83;;;9.00;;
69981;SDS011;57319;56.274;43.980;2022-07-09T12:25:18;10.55;;;9.48;;
69981;SDS011;57319;56.274;43.980;2022-07-09T12:27:45;9.45;;;8.65;;
69981;SDS011;57319;56.274;43.980;2022-07-09T12:30:11;12.00;;;8.88;;
69981;SDS011;57319;56.274;43.980;2022-07-09T12:32:37;16.95;;;10.20;;
69981;SDS011;57319;56.274;43.980;2022-07-09T12:35:04;11.55;;;8.82;;
69981;SDS011;57319;56.274;43.980;2022-07-09T12:37:30;14.93;;;9.52;;
69981;SDS011;57319;56.274;43.980;2022-07-09T12:39:55;16.63;;;10.25;;
69981;SDS011;57319;56.274;43.980;2022-07-09T12:42:21;10.73;;;9.25;;
69981;SDS011;57319;56.274;43.980;2022-07-09T12:44:47;12.35;;;9.38;;
69981;SDS011;57319;56.274;43.980;2022-07-09T12:47:13;23.70;;;10.13;;
69981;SDS011;57319;56.274;43.980;2022-07-09T12:49:39;13.77;;;9.20;;
69981;SDS011;57319;56.274;43.980;2022-07-09T12:52:05;15.20;;;9.38;;
69981;SDS011;57319;56.274;43.980;2022-07-09T12:54:30;13.77;;;10.00;;
69981;SDS011;57319;56.274;43.980;2022-07-09T12:56:56;14.30;;;9.35;;
69981;SDS011;57319;56.274;43.980;2022-07-09T12:59:22;14.80;;;8.40;;
69981;SDS011;57319;56.274;43.980;2022-07-09T13:01:47;21.35;;;10.13;;
69981;SDS011;57319;56.274;43.980;2022-07-09T13:04:13;24.48;;;9.88;;
69981;SDS011;57319;56.274;43.980;2022-07-09T13:06:39;16.60;;;9.40;;
69981;SDS011;57319;56.274;43.980;2022-07-09T13:09:07;15.48;;;9.82;;
69981;SDS011;57319;56.274;43.980;2022-07-09T13:11:33;14.55;;;9.68;;
69981;SDS011;57319;56.274;43.980;2022-07-09T13:13:59;10.50;;;9.50;;
69981;SDS011;57319;56.274;43.980;2022-07-09T13:16:25;15.73;;;9.70;;
69981;SDS011;57319;56.274;43.980;2022-07-09T13:18:51;15.73;;;9.38;;
69981;SDS011;57319;56.274;43.980;2022-07-09T13:21:17;32.05;;;9.50;;
69981;SDS011;57319;56.274;43.980;2022-07-09T13:23:43;20.42;;;9.60;;
69981;SDS011;57319;56.274;43.980;2022-07-09T13:26:09;14.05;;;8.95;;
69981;SDS011;57319;56.274;43.980;2022-07-09T13:28:35;12.38;;;8.40;;
69981;SDS011;57319;56.274;43.980;2022-07-09T13:31:01;12.18;;;8.75;;
69981;SDS011;57319;56.274;43.980;2022-07-09T13:33:26;12.90;;;8.38;;
69981;SDS011;57319;56.274;43.980;2022-07-09T13:35:52;25.80;;;8.63;;
69981;SDS011;57319;56.274;43.980;2022-07-09T13:38:18;17.25;;;9.57;;
69981;SDS011;57319;56.274;43.980;2022-07-09T13:40:44;13.98;;;9.10;;
69981;SDS011;57319;56.274;43.980;2022-07-09T13:43:09;17.65;;;9.18;;
69981;SDS011;57319;56.274;43.980;2022-07-09T13:45:35;12.57;;;8.93;;
69981;SDS011;57319;56.274;43.980;2022-07-09T13:48:01;14.75;;;10.02;;
69981;SDS011;57319;56.274;43.980;2022-07-09T13:50:27;18.42;;;10.70;;
69981;SDS011;57319;56.274;43.980;2022-07-09T13:52:53;18.60;;;10.25;;
69981;SDS011;57319;56.274;43.980;2022-07-09T13:55:18;18.25;;;10.10;;
69981;SDS011;57319;56.274;43.980;2022-07-09T13:57:44;20.27;;;11.15;;
69981;SDS011;57319;56.274;43.980;2022-07-09T14:00:10;17.38;;;10.77;;
69981;SDS011;57319;56.274;43.980;2022-07-09T14:02:36;13.48;;;10.63;;
69981;SDS011;57319;56.274;43.980;2022-07-09T14:05:02;18.30;;;10.80;;
69981;SDS011;57319;56.274;43.980;2022-07-09T14:07:29;18.08;;;11.40;;
69981;SDS011;57319;56.274;43.980;2022-07-09T14:09:55;16.10;;;11.18;;
69981;SDS011;57319;56.274;43.980;2022-07-09T14:12:21;11.70;;;9.77;;
69981;SDS011;57319;56.274;43.980;2022-07-09T14:14:51;20.90;;;10.30;;
69981;SDS011;57319;56.274;43.980;2022-07-09T14:17:18;19.60;;;10.30;;
69981;SDS011;57319;56.274;43.980;2022-07-09T14:19:44;18.50;;;11.07;;
69981;SDS011;57319;56.274;43.980;2022-07-09T14:22:10;12.13;;;10.90;;
69981;SDS011;57319;56.274;43.980;2022-07-09T14:24:35;16.52;;;11.52;;
69981;SDS011;57319;56.274;43.980;2022-07-09T14:27:01;17.50;;;10.38;;
69981;SDS011;57319;56.274;43.980;2022-07-09T14:29:28;14.13;;;10.27;;
69981;SDS011;57319;56.274;43.980;2022-07-09T14:31:53;21.48;;;11.15;;
69981;SDS011;57319;56.274;43.980;2022-07-09T14:34:19;17.38;;;11.00;;
69981;SDS011;57319;56.274;43.980;2022-07-09T14:36:45;19.27;;;12.07;;